sensor_id;sensor_type;location;lat;lon;timestamp;P1;durP1;ratioP1;P2;durP2;ratioP2
62903;SDS011;49000;50.698;13.322;2023-06-04T00:00:25;3.07;;;1.23;;
62903;SDS011;49000;50.698;13.322;2023-06-04T00:02:51;2.33;;;1.20;;
62903;SDS011;49000;50.698;13.322;2023-06-04T00:05:16;2.10;;;1.27;;
62903;SDS011;49000;50.698;13.322;2023-06-04T00:07:42;1.77;;;1.10;;
62903;SDS011;49000;50.698;13.322;2023-06-04T00:10:08;1.63;;;1.10;;
62903;SDS011;49000;50.698;13.322;2023-06-04T00:12:33;1.77;;;1.10;;
62903;SDS011;49000;50.698;13.322;2023-06-04T00:14:59;1.47;;;1.00;;
62903;SDS011;49000;50.698;13.322;2023-06-04T00:17:25;2.27;;;1.30;;
62903;SDS011;49000;50.698;13.322;2023-06-04T00:19:50;1.73;;;1.00;;
62903;SDS011;49000;50.698;13.322;2023-06-04T00:22:16;1.93;;;1.13;;
62903;SDS011;49000;50.698;13.322;2023-06-04T00:24:41;2.00;;;1.30;;
62903;SDS011;49000;50.698;13.322;2023-06-04T00:27:10;1.33;;;1.00;;
62903;SDS011;49000;50.698;13.322;2023-06-04T00:29:35;1.80;;;1.10;;
62903;SDS011;49000;50.698;13.322;2023-06-04T00:32:02;1.73;;;1.20;;
62903;SDS011;49000;50.698;13.322;2023-06-04T00:34:27;1.60;;;1.00;;
62903;SDS011;49000;50.698;13.322;2023-06-04T00:36:53;2.13;;;1.20;;
62903;SDS011;49000;50.698;13.322;2023-06-04T00:39:18;2.57;;;1.40;;
62903;SDS011;49000;50.698;13.322;2023-06-04T00:41:44;1.63;;;1.00;;
62903;SDS011;49000;50.698;13.322;2023-06-04T00:44:09;2.37;;;1.03;;
62903;SDS011;49000;50.698;13.322;2023-06-04T00:46:36;2.17;;;1.07;;
62903;SDS011;49000;50.698;13.322;2023-06-04T00:49:05;1.20;;;0.90;;
62903;SDS011;49000;50.698;13.322;2023-06-04T00:51:31;1.67;;;1.10;;
62903;SDS011;49000;50.698;13.322;2023-06-04T00:53:58;2.60;;;1.20;;
62903;SDS011;49000;50.698;13.322;2023-06-04T00:56:24;2.27;;;0.90;;
62903;SDS011;49000;50.698;13.322;2023-06-04T00:58:50;1.50;;;1.10;;
62903;SDS011;49000;50.698;13.322;2023-06-04T01:04:20;1.50;;;1.07;;
62903;SDS011;49000;50.698;13.322;2023-06-04T01:07:03;1.50;;;1.00;;
62903;SDS011;49000;50.698;13.322;2023-06-04T01:09:29;1.33;;;0.80;;
62903;SDS011;49000;50.698;13.322;2023-06-04T01:11:55;3.63;;;1.10;;
62903;SDS011;49000;50.698;13.322;2023-06-04T01:14:23;1.33;;;1.00;;
62903;SDS011;49000;50.698;13.322;2023-06-04T01:25:34;3.07;;;1.40;;
62903;SDS011;49000;50.698;13.322;2023-06-04T01:28:04;2.53;;;1.10;;
62903;SDS011;49000;50.698;13.322;2023-06-04T01:30:31;2.30;;;0.97;;
62903;SDS011;49000;50.698;13.322;2023-06-04T01:32:59;1.93;;;1.20;;
62903;SDS011;49000;50.698;13.322;2023-06-04T01:35:26;1.73;;;0.90;;
62903;SDS011;49000;50.698;13.322;2023-06-04T01:37:53;1.47;;;1.07;;
62903;SDS011;49000;50.698;13.322;2023-06-04T01:40:19;1.90;;;1.07;;
62903;SDS011;49000;50.698;13.322;2023-06-04T01:42:45;1.60;;;1.00;;
62903;SDS011;49000;50.698;13.322;2023-06-04T01:45:10;4.20;;;1.20;;
62903;SDS011;49000;50.698;13.322;2023-06-04T01:47:36;3.50;;;1.07;;
62903;SDS011;49000;50.698;13.322;2023-06-04T01:50:02;1.23;;;0.90;;
62903;SDS011;49000;50.698;13.322;2023-06-04T01:52:30;2.03;;;1.00;;
62903;SDS011;49000;50.698;13.322;2023-06-04T01:54:56;2.00;;;1.20;;
62903;SDS011;49000;50.698;13.322;2023-06-04T01:57:22;1.30;;;1.00;;
62903;SDS011;49000;50.698;13.322;2023-06-04T01:59:47;2.70;;;0.90;;
62903;SDS011;49000;50.698;13.322;2023-06-04T02:02:14;1.83;;;1.00;;
62903;SDS011;49000;50.698;13.322;2023-06-04T02:04:40;1.57;;;1.13;;
62903;SDS011;49000;50.698;13.322;2023-06-04T02:07:08;2.00;;;1.13;;
62903;SDS011;49000;50.698;13.322;2023-06-04T02:09:34;1.73;;;1.10;;
62903;SDS011;49000;50.698;13.322;2023-06-04T02:12:00;1.77;;;1.00;;
62903;SDS011;49000;50.698;13.322;2023-06-04T02:14:26;1.63;;;0.90;;
62903;SDS011;49000;50.698;13.322;2023-06-04T02:16:51;1.97;;;1.00;;
62903;SDS011;49000;50.698;13.322;2023-06-04T02:19:22;2.27;;;1.03;;
62903;SDS011;49000;50.698;13.322;2023-06-04T02:21:48;2.47;;;1.10;;
62903;SDS011;49000;50.698;13.322;2023-06-04T02:24:13;1.80;;;1.10;;
62903;SDS011;49000;50.698;13.322;2023-06-04T02:26:39;4.30;;;1.27;;
62903;SDS011;49000;50.698;13.322;2023-06-04T02:29:05;1.27;;;1.10;;
62903;SDS011;49000;50.698;13.322;2023-06-04T02:31:30;1.60;;;1.03;;
62903;SDS011;49000;50.698;13.322;2023-06-04T02:33:56;1.70;;;1.00;;
62903;SDS011;49000;50.698;13.322;2023-06-04T02:36:21;1.97;;;1.17;;
62903;SDS011;49000;50.698;13.322;2023-06-04T02:38:47;1.77;;;1.10;;
62903;SDS011;49000;50.698;13.322;2023-06-04T02:41:12;1.20;;;0.90;;
62903;SDS011;49000;50.698;13.322;2023-06-04T02:43:37;1.03;;;0.90;;
62903;SDS011;49000;50.698;13.322;2023-06-04T02:46:03;4.00;;;1.23;;
62903;SDS011;49000;50.698;13.322;2023-06-04T02:48:29;1.33;;;1.20;;
62903;SDS011;49000;50.698;13.322;2023-06-04T02:50:54;3.03;;;1.10;;
62903;SDS011;49000;50.698;13.322;2023-06-04T02:53:20;1.47;;;1.07;;
62903;SDS011;49000;50.698;13.322;2023-06-04T02:55:45;1.63;;;0.87;;
62903;SDS011;49000;50.698;13.322;2023-06-04T02:58:11;1.87;;;1.30;;
62903;SDS011;49000;50.698;13.322;2023-06-04T03:00:36;2.67;;;1.30;;
62903;SDS011;49000;50.698;13.322;2023-06-04T03:03:02;1.90;;;1.40;;
62903;SDS011;49000;50.698;13.322;2023-06-04T03:05:27;1.60;;;1.10;;
62903;SDS011;49000;50.698;13.322;2023-06-04T03:07:55;2.97;;;1.17;;
62903;SDS011;49000;50.698;13.322;2023-06-04T03:10:22;7.83;;;1.27;;
62903;SDS011;49000;50.698;13.322;2023-06-04T03:12:47;2.90;;;2.10;;
62903;SDS011;49000;50.698;13.322;2023-06-04T03:15:13;1.10;;;1.00;;
62903;SDS011;49000;50.698;13.322;2023-06-04T03:17:38;2.10;;;1.20;;
62903;SDS011;49000;50.698;13.322;2023-06-04T03:20:05;1.30;;;1.03;;
62903;SDS011;49000;50.698;13.322;2023-06-04T03:22:32;1.90;;;1.03;;
62903;SDS011;49000;50.698;13.322;2023-06-04T03:24:59;1.77;;;1.07;;
62903;SDS011;49000;50.698;13.322;2023-06-04T03:27:25;3.27;;;1.20;;
62903;SDS011;49000;50.698;13.322;2023-06-04T03:29:50;2.13;;;1.03;;
62903;SDS011;49000;50.698;13.322;2023-06-04T03:32:16;1.30;;;1.10;;
62903;SDS011;49000;50.698;13.322;2023-06-04T03:34:42;1.17;;;1.00;;
62903;SDS011;49000;50.698;13.322;2023-06-04T03:37:08;1.53;;;1.10;;
62903;SDS011;49000;50.698;13.322;2023-06-04T03:39:33;1.93;;;1.20;;
62903;SDS011;49000;50.698;13.322;2023-06-04T03:41:58;3.20;;;1.10;;
62903;SDS011;49000;50.698;13.322;2023-06-04T03:44:24;2.80;;;1.37;;
62903;SDS011;49000;50.698;13.322;2023-06-04T03:46:50;1.90;;;1.20;;
62903;SDS011;49000;50.698;13.322;2023-06-04T03:49:15;2.03;;;1.00;;
62903;SDS011;49000;50.698;13.322;2023-06-04T03:51:42;2.30;;;1.10;;
62903;SDS011;49000;50.698;13.322;2023-06-04T03:54:07;1.63;;;1.20;;
62903;SDS011;49000;50.698;13.322;2023-06-04T03:56:33;1.40;;;1.20;;
62903;SDS011;49000;50.698;13.322;2023-06-04T03:58:58;3.57;;;1.27;;
62903;SDS011;49000;50.698;13.322;2023-06-04T04:01:25;1.30;;;1.00;;
62903;SDS011;49000;50.698;13.322;2023-06-04T04:03:52;1.53;;;1.20;;
62903;SDS011;49000;50.698;13.322;2023-06-04T04:06:18;2.23;;;1.23;;
62903;SDS011;49000;50.698;13.322;2023-06-04T04:08:44;1.60;;;1.30;;
62903;SDS011;49000;50.698;13.322;2023-06-04T04:11:10;1.53;;;1.20;;
62903;SDS011;49000;50.698;13.322;2023-06-04T04:13:42;1.03;;;0.93;;
62903;SDS011;49000;50.698;13.322;2023-06-04T04:16:09;1.63;;;1.10;;
62903;SDS011;49000;50.698;13.322;2023-06-04T04:18:35;2.77;;;1.17;;
62903;SDS011;49000;50.698;13.322;2023-06-04T04:21:02;2.53;;;1.30;;
62903;SDS011;49000;50.698;13.322;2023-06-04T04:23:28;2.80;;;1.27;;
62903;SDS011;49000;50.698;13.322;2023-06-04T04:25:54;2.10;;;1.20;;
62903;SDS011;49000;50.698;13.322;2023-06-04T04:28:24;1.70;;;1.00;;
62903;SDS011;49000;50.698;13.322;2023-06-04T04:30:57;4.27;;;1.90;;
62903;SDS011;49000;50.698;13.322;2023-06-04T04:33:24;1.43;;;1.10;;
62903;SDS011;49000;50.698;13.322;2023-06-04T04:35:50;1.40;;;1.27;;
62903;SDS011;49000;50.698;13.322;2023-06-04T04:38:17;1.50;;;1.10;;
62903;SDS011;49000;50.698;13.322;2023-06-04T04:40:43;2.20;;;1.10;;
62903;SDS011;49000;50.698;13.322;2023-06-04T04:43:08;2.27;;;1.10;;
62903;SDS011;49000;50.698;13.322;2023-06-04T04:45:34;2.17;;;1.10;;
62903;SDS011;49000;50.698;13.322;2023-06-04T04:47:59;1.93;;;1.13;;
62903;SDS011;49000;50.698;13.322;2023-06-04T04:50:25;2.97;;;1.30;;
62903;SDS011;49000;50.698;13.322;2023-06-04T04:52:50;1.13;;;1.00;;
62903;SDS011;49000;50.698;13.322;2023-06-04T04:55:16;1.40;;;0.90;;
62903;SDS011;49000;50.698;13.322;2023-06-04T04:57:41;2.33;;;1.30;;
62903;SDS011;49000;50.698;13.322;2023-06-04T05:00:07;3.40;;;1.57;;
62903;SDS011;49000;50.698;13.322;2023-06-04T05:02:37;3.60;;;1.30;;
62903;SDS011;49000;50.698;13.322;2023-06-04T05:05:03;1.90;;;1.40;;
62903;SDS011;49000;50.698;13.322;2023-06-04T05:07:29;2.37;;;1.33;;
62903;SDS011;49000;50.698;13.322;2023-06-04T05:09:54;1.30;;;1.03;;
62903;SDS011;49000;50.698;13.322;2023-06-04T05:12:20;2.43;;;1.30;;
62903;SDS011;49000;50.698;13.322;2023-06-04T05:14:45;1.60;;;1.20;;
62903;SDS011;49000;50.698;13.322;2023-06-04T05:17:11;1.80;;;1.33;;
62903;SDS011;49000;50.698;13.322;2023-06-04T05:19:38;2.63;;;1.40;;
62903;SDS011;49000;50.698;13.322;2023-06-04T05:22:03;4.00;;;1.57;;
62903;SDS011;49000;50.698;13.322;2023-06-04T05:24:29;3.00;;;1.30;;
62903;SDS011;49000;50.698;13.322;2023-06-04T05:26:56;2.73;;;1.40;;
62903;SDS011;49000;50.698;13.322;2023-06-04T05:29:22;1.80;;;1.37;;
62903;SDS011;49000;50.698;13.322;2023-06-04T05:31:48;2.87;;;1.60;;
62903;SDS011;49000;50.698;13.322;2023-06-04T05:34:14;3.47;;;1.40;;
62903;SDS011;49000;50.698;13.322;2023-06-04T05:36:41;2.90;;;1.63;;
62903;SDS011;49000;50.698;13.322;2023-06-04T05:39:08;2.37;;;1.43;;
62903;SDS011;49000;50.698;13.322;2023-06-04T05:41:34;4.60;;;1.50;;
62903;SDS011;49000;50.698;13.322;2023-06-04T05:44:00;2.53;;;1.43;;
62903;SDS011;49000;50.698;13.322;2023-06-04T05:46:26;2.60;;;1.60;;
62903;SDS011;49000;50.698;13.322;2023-06-04T05:48:52;2.60;;;1.47;;
62903;SDS011;49000;50.698;13.322;2023-06-04T05:51:18;3.53;;;1.80;;
62903;SDS011;49000;50.698;13.322;2023-06-04T05:53:44;2.00;;;1.53;;
62903;SDS011;49000;50.698;13.322;2023-06-04T05:56:09;2.20;;;1.70;;
62903;SDS011;49000;50.698;13.322;2023-06-04T05:58:35;3.93;;;1.63;;
62903;SDS011;49000;50.698;13.322;2023-06-04T06:01:01;2.37;;;1.53;;
62903;SDS011;49000;50.698;13.322;2023-06-04T06:03:26;2.50;;;1.43;;
62903;SDS011;49000;50.698;13.322;2023-06-04T06:05:52;2.10;;;1.50;;
62903;SDS011;49000;50.698;13.322;2023-06-04T06:08:19;2.03;;;1.70;;
62903;SDS011;49000;50.698;13.322;2023-06-04T06:10:45;2.73;;;1.70;;
62903;SDS011;49000;50.698;13.322;2023-06-04T06:13:11;2.20;;;1.60;;
62903;SDS011;49000;50.698;13.322;2023-06-04T06:15:36;4.13;;;1.63;;
62903;SDS011;49000;50.698;13.322;2023-06-04T06:18:02;2.97;;;1.57;;
62903;SDS011;49000;50.698;13.322;2023-06-04T06:20:27;2.63;;;1.70;;
62903;SDS011;49000;50.698;13.322;2023-06-04T06:22:54;2.10;;;1.63;;
62903;SDS011;49000;50.698;13.322;2023-06-04T06:25:19;2.33;;;1.50;;
62903;SDS011;49000;50.698;13.322;2023-06-04T06:27:45;2.17;;;1.70;;
62903;SDS011;49000;50.698;13.322;2023-06-04T06:30:10;1.40;;;1.30;;
62903;SDS011;49000;50.698;13.322;2023-06-04T06:32:37;1.70;;;1.50;;
62903;SDS011;49000;50.698;13.322;2023-06-04T06:35:03;3.60;;;1.50;;
62903;SDS011;49000;50.698;13.322;2023-06-04T06:37:29;2.23;;;1.40;;
62903;SDS011;49000;50.698;13.322;2023-06-04T06:39:54;2.50;;;1.73;;
62903;SDS011;49000;50.698;13.322;2023-06-04T06:42:20;2.77;;;1.43;;
62903;SDS011;49000;50.698;13.322;2023-06-04T06:44:45;1.70;;;1.50;;
62903;SDS011;49000;50.698;13.322;2023-06-04T06:47:11;3.67;;;1.93;;
62903;SDS011;49000;50.698;13.322;2023-06-04T06:49:40;4.87;;;1.60;;
62903;SDS011;49000;50.698;13.322;2023-06-04T06:52:05;1.87;;;1.67;;
62903;SDS011;49000;50.698;13.322;2023-06-04T06:54:31;2.70;;;1.70;;
62903;SDS011;49000;50.698;13.322;2023-06-04T06:56:56;2.30;;;1.60;;
62903;SDS011;49000;50.698;13.322;2023-06-04T06:59:22;3.87;;;1.90;;
62903;SDS011;49000;50.698;13.322;2023-06-04T07:01:48;2.57;;;1.70;;
62903;SDS011;49000;50.698;13.322;2023-06-04T07:04:13;4.05;;;1.95;;
62903;SDS011;49000;50.698;13.322;2023-06-04T07:06:39;3.47;;;1.80;;
62903;SDS011;49000;50.698;13.322;2023-06-04T07:09:04;3.38;;;1.80;;
62903;SDS011;49000;50.698;13.322;2023-06-04T07:11:33;2.33;;;1.80;;
62903;SDS011;49000;50.698;13.322;2023-06-04T07:13:59;7.68;;;1.65;;
62903;SDS011;49000;50.698;13.322;2023-06-04T07:16:26;3.50;;;1.98;;
62903;SDS011;49000;50.698;13.322;2023-06-04T07:18:52;2.40;;;1.73;;
62903;SDS011;49000;50.698;13.322;2023-06-04T07:21:17;3.80;;;1.67;;
62903;SDS011;49000;50.698;13.322;2023-06-04T07:23:44;2.70;;;1.55;;
62903;SDS011;49000;50.698;13.322;2023-06-04T07:26:14;2.30;;;1.60;;
62903;SDS011;49000;50.698;13.322;2023-06-04T07:28:40;4.03;;;1.70;;
62903;SDS011;49000;50.698;13.322;2023-06-04T07:31:05;2.60;;;1.65;;
62903;SDS011;49000;50.698;13.322;2023-06-04T07:33:31;2.65;;;1.60;;
62903;SDS011;49000;50.698;13.322;2023-06-04T07:35:56;1.92;;;1.60;;
62903;SDS011;49000;50.698;13.322;2023-06-04T07:38:22;4.65;;;1.65;;
62903;SDS011;49000;50.698;13.322;2023-06-04T07:40:47;5.13;;;1.77;;
62903;SDS011;49000;50.698;13.322;2023-06-04T07:43:13;6.70;;;1.80;;
62903;SDS011;49000;50.698;13.322;2023-06-04T07:45:38;2.55;;;1.50;;
62903;SDS011;49000;50.698;13.322;2023-06-04T07:48:03;1.98;;;1.52;;
62903;SDS011;49000;50.698;13.322;2023-06-04T07:50:29;3.90;;;1.50;;
62903;SDS011;49000;50.698;13.322;2023-06-04T08:05:55;2.22;;;1.67;;
62903;SDS011;49000;50.698;13.322;2023-06-04T08:08:20;3.83;;;1.90;;
62903;SDS011;49000;50.698;13.322;2023-06-04T08:10:46;3.63;;;1.60;;
62903;SDS011;49000;50.698;13.322;2023-06-04T08:13:11;2.70;;;1.70;;
62903;SDS011;49000;50.698;13.322;2023-06-04T08:15:37;3.03;;;1.80;;
62903;SDS011;49000;50.698;13.322;2023-06-04T08:18:02;2.47;;;2.00;;
62903;SDS011;49000;50.698;13.322;2023-06-04T08:20:28;3.70;;;1.80;;
62903;SDS011;49000;50.698;13.322;2023-06-04T08:22:53;2.28;;;1.50;;
62903;SDS011;49000;50.698;13.322;2023-06-04T08:25:19;4.25;;;2.03;;
62903;SDS011;49000;50.698;13.322;2023-06-04T08:27:44;2.88;;;1.75;;
62903;SDS011;49000;50.698;13.322;2023-06-04T08:30:10;4.13;;;1.95;;
62903;SDS011;49000;50.698;13.322;2023-06-04T08:32:36;3.60;;;1.98;;
62903;SDS011;49000;50.698;13.322;2023-06-04T08:35:01;5.57;;;2.03;;
62903;SDS011;49000;50.698;13.322;2023-06-04T08:37:27;2.28;;;1.45;;
62903;SDS011;49000;50.698;13.322;2023-06-04T08:39:53;5.35;;;2.00;;
62903;SDS011;49000;50.698;13.322;2023-06-04T08:42:22;3.58;;;1.83;;
62903;SDS011;49000;50.698;13.322;2023-06-04T08:44:52;2.33;;;2.10;;
62903;SDS011;49000;50.698;13.322;2023-06-04T08:47:18;5.68;;;1.80;;
62903;SDS011;49000;50.698;13.322;2023-06-04T08:49:44;3.05;;;1.67;;
62903;SDS011;49000;50.698;13.322;2023-06-04T08:52:14;5.35;;;1.80;;
62903;SDS011;49000;50.698;13.322;2023-06-04T08:54:40;2.78;;;1.60;;
62903;SDS011;49000;50.698;13.322;2023-06-04T08:57:05;4.97;;;1.70;;
62903;SDS011;49000;50.698;13.322;2023-06-04T08:59:32;3.03;;;1.77;;
62903;SDS011;49000;50.698;13.322;2023-06-04T09:01:57;2.38;;;2.05;;
62903;SDS011;49000;50.698;13.322;2023-06-04T09:04:23;2.10;;;1.63;;
62903;SDS011;49000;50.698;13.322;2023-06-04T09:06:50;2.00;;;1.70;;
62903;SDS011;49000;50.698;13.322;2023-06-04T09:09:17;1.77;;;1.60;;
62903;SDS011;49000;50.698;13.322;2023-06-04T09:11:45;3.38;;;1.67;;
62903;SDS011;49000;50.698;13.322;2023-06-04T09:14:22;2.40;;;1.77;;
62903;SDS011;49000;50.698;13.322;2023-06-04T09:16:49;2.17;;;1.60;;
62903;SDS011;49000;50.698;13.322;2023-06-04T09:19:17;5.30;;;1.60;;
62903;SDS011;49000;50.698;13.322;2023-06-04T09:21:56;3.50;;;1.75;;
62903;SDS011;49000;50.698;13.322;2023-06-04T09:24:23;1.98;;;1.50;;
62903;SDS011;49000;50.698;13.322;2023-06-04T09:27:15;2.90;;;1.60;;
62903;SDS011;49000;50.698;13.322;2023-06-04T09:32:25;1.70;;;1.52;;
62903;SDS011;49000;50.698;13.322;2023-06-04T09:34:53;3.53;;;1.52;;
62903;SDS011;49000;50.698;13.322;2023-06-04T09:37:19;2.00;;;1.63;;
62903;SDS011;49000;50.698;13.322;2023-06-04T09:39:54;3.42;;;1.83;;
62903;SDS011;49000;50.698;13.322;2023-06-04T09:42:22;5.57;;;1.63;;
62903;SDS011;49000;50.698;13.322;2023-06-04T09:44:48;2.42;;;1.83;;
62903;SDS011;49000;50.698;13.322;2023-06-04T09:47:14;3.65;;;1.67;;
62903;SDS011;49000;50.698;13.322;2023-06-04T09:49:43;3.20;;;1.70;;
62903;SDS011;49000;50.698;13.322;2023-06-04T09:52:14;3.83;;;2.08;;
62903;SDS011;49000;50.698;13.322;2023-06-04T09:54:40;3.95;;;1.83;;
62903;SDS011;49000;50.698;13.322;2023-06-04T09:57:15;3.10;;;1.60;;
62903;SDS011;49000;50.698;13.322;2023-06-04T09:59:43;3.25;;;1.55;;
62903;SDS011;49000;50.698;13.322;2023-06-04T10:02:11;3.53;;;1.70;;
62903;SDS011;49000;50.698;13.322;2023-06-04T10:04:38;3.03;;;1.42;;
62903;SDS011;49000;50.698;13.322;2023-06-04T10:07:08;3.33;;;1.80;;
62903;SDS011;49000;50.698;13.322;2023-06-04T10:09:35;3.17;;;1.65;;
62903;SDS011;49000;50.698;13.322;2023-06-04T10:12:10;3.58;;;1.73;;
62903;SDS011;49000;50.698;13.322;2023-06-04T10:14:41;3.15;;;1.75;;
62903;SDS011;49000;50.698;13.322;2023-06-04T10:17:12;3.85;;;1.77;;
62903;SDS011;49000;50.698;13.322;2023-06-04T10:19:42;4.25;;;1.77;;
62903;SDS011;49000;50.698;13.322;2023-06-04T10:22:09;3.30;;;1.80;;
62903;SDS011;49000;50.698;13.322;2023-06-04T10:24:36;2.20;;;1.63;;
62903;SDS011;49000;50.698;13.322;2023-06-04T10:27:02;2.08;;;1.70;;
62903;SDS011;49000;50.698;13.322;2023-06-04T10:29:35;3.25;;;1.50;;
62903;SDS011;49000;50.698;13.322;2023-06-04T10:32:01;2.40;;;1.58;;
62903;SDS011;49000;50.698;13.322;2023-06-04T10:34:27;1.77;;;1.65;;
62903;SDS011;49000;50.698;13.322;2023-06-04T10:36:52;1.73;;;1.45;;
62903;SDS011;49000;50.698;13.322;2023-06-04T10:39:31;2.75;;;1.45;;
62903;SDS011;49000;50.698;13.322;2023-06-04T10:42:03;2.55;;;1.75;;
62903;SDS011;49000;50.698;13.322;2023-06-04T10:44:30;4.65;;;1.80;;
62903;SDS011;49000;50.698;13.322;2023-06-04T10:46:57;2.67;;;1.77;;
62903;SDS011;49000;50.698;13.322;2023-06-04T10:49:30;1.80;;;1.60;;
62903;SDS011;49000;50.698;13.322;2023-06-04T10:51:56;2.00;;;1.70;;
62903;SDS011;49000;50.698;13.322;2023-06-04T10:54:25;2.03;;;1.55;;
62903;SDS011;49000;50.698;13.322;2023-06-04T10:56:51;6.22;;;1.75;;
62903;SDS011;49000;50.698;13.322;2023-06-04T10:59:20;1.98;;;1.50;;
62903;SDS011;49000;50.698;13.322;2023-06-04T11:01:46;3.85;;;1.75;;
62903;SDS011;49000;50.698;13.322;2023-06-04T11:04:19;1.70;;;1.60;;
62903;SDS011;49000;50.698;13.322;2023-06-04T11:06:46;3.10;;;1.52;;
62903;SDS011;49000;50.698;13.322;2023-06-04T11:09:12;2.72;;;1.77;;
62903;SDS011;49000;50.698;13.322;2023-06-04T11:11:41;1.77;;;1.67;;
62903;SDS011;49000;50.698;13.322;2023-06-04T11:14:07;1.52;;;1.42;;
62903;SDS011;49000;50.698;13.322;2023-06-04T11:16:34;2.97;;;1.77;;
62903;SDS011;49000;50.698;13.322;2023-06-04T11:18:59;5.07;;;1.70;;
62903;SDS011;49000;50.698;13.322;2023-06-04T11:21:25;2.22;;;1.65;;
62903;SDS011;49000;50.698;13.322;2023-06-04T11:23:57;2.90;;;1.80;;
62903;SDS011;49000;50.698;13.322;2023-06-04T11:26:30;2.33;;;1.70;;
62903;SDS011;49000;50.698;13.322;2023-06-04T11:28:57;2.00;;;1.63;;
62903;SDS011;49000;50.698;13.322;2023-06-04T11:31:23;1.67;;;1.48;;
62903;SDS011;49000;50.698;13.322;2023-06-04T11:33:48;1.83;;;1.45;;
62903;SDS011;49000;50.698;13.322;2023-06-04T11:36:27;1.48;;;1.38;;
62903;SDS011;49000;50.698;13.322;2023-06-04T11:38:54;1.63;;;1.52;;
62903;SDS011;49000;50.698;13.322;2023-06-04T11:41:24;1.70;;;1.60;;
62903;SDS011;49000;50.698;13.322;2023-06-04T11:43:55;1.85;;;1.65;;
62903;SDS011;49000;50.698;13.322;2023-06-04T11:46:21;2.92;;;1.55;;
62903;SDS011;49000;50.698;13.322;2023-06-04T11:48:47;5.50;;;1.70;;
62903;SDS011;49000;50.698;13.322;2023-06-04T11:51:13;4.22;;;1.88;;
62903;SDS011;49000;50.698;13.322;2023-06-04T11:53:38;4.70;;;1.60;;
62903;SDS011;49000;50.698;13.322;2023-06-04T11:56:04;2.42;;;1.58;;
62903;SDS011;49000;50.698;13.322;2023-06-04T11:58:30;1.80;;;1.45;;
62903;SDS011;49000;50.698;13.322;2023-06-04T12:00:57;1.70;;;1.55;;
62903;SDS011;49000;50.698;13.322;2023-06-04T12:03:33;2.92;;;1.63;;
62903;SDS011;49000;50.698;13.322;2023-06-04T12:06:08;2.75;;;1.73;;
62903;SDS011;49000;50.698;13.322;2023-06-04T12:08:43;2.85;;;1.60;;
62903;SDS011;49000;50.698;13.322;2023-06-04T12:11:24;2.72;;;1.70;;
62903;SDS011;49000;50.698;13.322;2023-06-04T12:13:56;1.88;;;1.67;;
62903;SDS011;49000;50.698;13.322;2023-06-04T12:16:23;1.92;;;1.50;;
62903;SDS011;49000;50.698;13.322;2023-06-04T12:18:49;2.35;;;1.52;;
62903;SDS011;49000;50.698;13.322;2023-06-04T12:21:24;1.83;;;1.60;;
62903;SDS011;49000;50.698;13.322;2023-06-04T12:23:53;2.05;;;1.40;;
62903;SDS011;49000;50.698;13.322;2023-06-04T12:26:30;1.50;;;1.40;;
62903;SDS011;49000;50.698;13.322;2023-06-04T12:28:58;2.95;;;1.40;;
62903;SDS011;49000;50.698;13.322;2023-06-04T12:31:26;1.80;;;1.42;;
62903;SDS011;49000;50.698;13.322;2023-06-04T12:33:57;2.60;;;1.48;;
62903;SDS011;49000;50.698;13.322;2023-06-04T12:36:23;2.38;;;1.60;;
62903;SDS011;49000;50.698;13.322;2023-06-04T12:38:48;3.53;;;1.58;;
62903;SDS011;49000;50.698;13.322;2023-06-04T12:41:14;1.58;;;1.48;;
62903;SDS011;49000;50.698;13.322;2023-06-04T12:43:39;3.88;;;1.70;;
62903;SDS011;49000;50.698;13.322;2023-06-04T12:46:05;3.60;;;1.77;;
62903;SDS011;49000;50.698;13.322;2023-06-04T12:48:30;1.95;;;1.75;;
62903;SDS011;49000;50.698;13.322;2023-06-04T12:50:57;3.08;;;1.48;;
62903;SDS011;49000;50.698;13.322;2023-06-04T12:53:23;1.70;;;1.55;;
62903;SDS011;49000;50.698;13.322;2023-06-04T12:55:48;2.10;;;1.40;;
62903;SDS011;49000;50.698;13.322;2023-06-04T12:58:14;2.35;;;1.55;;
62903;SDS011;49000;50.698;13.322;2023-06-04T13:00:39;2.60;;;1.45;;
62903;SDS011;49000;50.698;13.322;2023-06-04T13:03:04;3.10;;;1.75;;
62903;SDS011;49000;50.698;13.322;2023-06-04T13:05:30;2.05;;;1.60;;
62903;SDS011;49000;50.698;13.322;2023-06-04T13:07:56;5.32;;;1.40;;
62903;SDS011;49000;50.698;13.322;2023-06-04T13:10:21;2.22;;;1.40;;
62903;SDS011;49000;50.698;13.322;2023-06-04T13:12:47;3.42;;;1.60;;
62903;SDS011;49000;50.698;13.322;2023-06-04T13:15:12;1.52;;;1.35;;
62903;SDS011;49000;50.698;13.322;2023-06-04T13:17:38;2.83;;;1.83;;
62903;SDS011;49000;50.698;13.322;2023-06-04T13:20:03;3.75;;;1.42;;
62903;SDS011;49000;50.698;13.322;2023-06-04T13:22:30;3.05;;;1.55;;
62903;SDS011;49000;50.698;13.322;2023-06-04T13:24:56;1.88;;;1.60;;
62903;SDS011;49000;50.698;13.322;2023-06-04T13:27:21;2.63;;;1.33;;
62903;SDS011;49000;50.698;13.322;2023-06-04T13:29:46;3.05;;;1.70;;
62903;SDS011;49000;50.698;13.322;2023-06-04T13:32:12;2.00;;;1.70;;
62903;SDS011;49000;50.698;13.322;2023-06-04T13:34:37;2.83;;;1.67;;
62903;SDS011;49000;50.698;13.322;2023-06-04T13:37:03;1.85;;;1.73;;
62903;SDS011;49000;50.698;13.322;2023-06-04T13:39:29;2.35;;;1.75;;
62903;SDS011;49000;50.698;13.322;2023-06-04T13:41:54;2.95;;;1.40;;
62903;SDS011;49000;50.698;13.322;2023-06-04T13:44:21;1.58;;;1.40;;
62903;SDS011;49000;50.698;13.322;2023-06-04T13:46:50;1.88;;;1.48;;
62903;SDS011;49000;50.698;13.322;2023-06-04T13:49:16;2.15;;;1.60;;
62903;SDS011;49000;50.698;13.322;2023-06-04T13:51:41;1.88;;;1.75;;
62903;SDS011;49000;50.698;13.322;2023-06-04T13:54:07;2.97;;;1.55;;
62903;SDS011;49000;50.698;13.322;2023-06-04T13:56:33;1.52;;;1.42;;
62903;SDS011;49000;50.698;13.322;2023-06-04T13:58:58;3.05;;;1.40;;
62903;SDS011;49000;50.698;13.322;2023-06-04T14:01:24;1.88;;;1.60;;
62903;SDS011;49000;50.698;13.322;2023-06-04T14:03:49;2.10;;;1.75;;
62903;SDS011;49000;50.698;13.322;2023-06-04T14:06:15;1.83;;;1.67;;
62903;SDS011;49000;50.698;13.322;2023-06-04T14:08:40;2.45;;;1.50;;
62903;SDS011;49000;50.698;13.322;2023-06-04T14:11:06;2.80;;;1.85;;
62903;SDS011;49000;50.698;13.322;2023-06-04T14:13:31;2.28;;;1.60;;
62903;SDS011;49000;50.698;13.322;2023-06-04T14:15:57;2.72;;;1.55;;
62903;SDS011;49000;50.698;13.322;2023-06-04T14:18:22;2.00;;;1.65;;
62903;SDS011;49000;50.698;13.322;2023-06-04T14:20:48;1.70;;;1.40;;
62903;SDS011;49000;50.698;13.322;2023-06-04T14:23:13;2.50;;;1.90;;
62903;SDS011;49000;50.698;13.322;2023-06-04T14:25:39;1.70;;;1.60;;
62903;SDS011;49000;50.698;13.322;2023-06-04T14:28:05;1.50;;;1.40;;
62903;SDS011;49000;50.698;13.322;2023-06-04T14:30:30;4.75;;;1.80;;
62903;SDS011;49000;50.698;13.322;2023-06-04T14:32:56;1.92;;;1.77;;
62903;SDS011;49000;50.698;13.322;2023-06-04T14:35:21;1.73;;;1.63;;
62903;SDS011;49000;50.698;13.322;2023-06-04T14:37:47;1.60;;;1.50;;
62903;SDS011;49000;50.698;13.322;2023-06-04T14:40:13;4.10;;;1.50;;
62903;SDS011;49000;50.698;13.322;2023-06-04T14:42:39;2.67;;;1.60;;
62903;SDS011;49000;50.698;13.322;2023-06-04T14:45:04;2.72;;;1.80;;
62903;SDS011;49000;50.698;13.322;2023-06-04T14:47:30;3.20;;;1.90;;
62903;SDS011;49000;50.698;13.322;2023-06-04T14:49:56;2.03;;;1.83;;
62903;SDS011;49000;50.698;13.322;2023-06-04T14:52:21;1.60;;;1.50;;
62903;SDS011;49000;50.698;13.322;2023-06-04T14:54:47;2.47;;;1.60;;
62903;SDS011;49000;50.698;13.322;2023-06-04T14:57:12;1.75;;;1.58;;